Time;durP1;ratioP1;P1;durP2;ratioP2;P2;SDS_P1;SDS_P2;PMS_P1;PMS_P2;Temp;Humidity;BMP_temperature;BMP_pressure;BME280_temperature;BME280_humidity;BME280_pressure;Samples;Min_cycle;Max_cycle;Signal;HPM_P1;HPM_P2
2022/11/18 00:00:22;;;;;;;4.13;2.80;;;;;;;16.17;51.26;99454.16;5083619;28;20540;-68
2022/11/18 00:02:47;;;;;;;4.63;2.70;;;;;;;16.30;49.78;99455.19;5085196;28;20032;-67
2022/11/18 00:05:12;;;;;;;5.17;2.90;;;;;;;16.56;49.91;99458.16;5050768;28;20028;-68
2022/11/18 00:07:38;;;;;;;6.63;2.77;;;;;;;16.94;48.79;99455.97;5052457;28;20037;-68
2022/11/18 00:10:03;;;;;;;6.93;3.07;;;;;;;16.67;48.54;99462.84;5051011;28;20124;-68
2022/11/18 00:15:13;;;;;;;6.37;3.10;;;;;;;16.57;49.11;99478.34;5054067;28;20063;-68
2022/11/18 00:17:38;;;;;;;7.73;3.83;;;;;;;17.04;47.69;99481.84;5050748;28;20490;-67
2022/11/18 00:20:04;;;;;;;7.87;3.60;;;;;;;16.95;47.71;99476.16;5049316;28;20033;-68
2022/11/18 00:22:29;;;;;;;7.87;3.23;;;;;;;17.25;46.78;99471.81;5053350;28;20036;-68
2022/11/18 00:24:54;;;;;;;6.40;3.37;;;;;;;17.06;47.62;99486.09;5051534;28;20083;-67
2022/11/18 00:27:20;;;;;;;7.77;3.27;;;;;;;16.60;48.16;99493.97;5051475;28;20028;-68
2022/11/18 00:29:45;;;;;;;6.73;3.50;;;;;;;16.88;47.82;99489.75;5083830;28;20463;-68
2022/11/18 00:32:10;;;;;;;6.27;3.37;;;;;;;16.39;48.86;99496.88;5053503;28;20025;-68
2022/11/18 00:34:36;;;;;;;6.43;3.53;;;;;;;16.38;49.33;99496.97;5051913;28;20059;-68
2022/11/18 00:37:02;;;;;;;9.07;3.60;;;;;;;16.57;48.55;99499.44;5051227;28;20387;-67
2022/11/18 00:39:27;;;;;;;7.57;3.57;;;;;;;16.15;48.93;99508.75;5049482;28;20153;-68
2022/11/18 00:44:36;;;;;;;7.27;3.07;;;;;;;16.90;47.43;99509.03;5053634;28;20051;-68
2022/11/18 00:47:02;;;;;;;8.70;3.60;;;;;;;17.01;47.36;99504.00;5084234;28;20052;-68
2022/11/18 00:49:28;;;;;;;10.67;5.03;;;;;;;16.49;48.75;99517.47;5049059;28;20033;-68
2022/11/18 00:51:53;;;;;;;13.23;4.37;;;;;;;16.90;47.84;99511.69;5051073;28;20033;-67
2022/11/18 00:54:19;;;;;;;5.30;3.10;;;;;;;16.81;47.74;99522.72;5052985;28;20048;-68
2022/11/18 00:56:44;;;;;;;7.53;4.13;;;;;;;17.21;46.97;99525.72;5049894;28;20079;-67
2022/11/18 00:59:10;;;;;;;6.03;3.20;;;;;;;16.59;48.37;99526.56;5051697;28;20033;-68
2022/11/18 01:01:35;;;;;;;8.10;3.40;;;;;;;16.75;48.23;99535.31;5050659;28;20099;-67
2022/11/18 01:04:01;;;;;;;5.10;3.80;;;;;;;16.97;47.44;99531.50;5051160;28;20036;-68
2022/11/18 01:06:28;;;;;;;8.77;3.73;;;;;;;17.01;47.11;99534.78;5051795;28;20506;-68
2022/11/18 01:08:53;;;;;;;6.53;3.50;;;;;;;16.50;49.07;99540.25;5049619;28;20237;-67
2022/11/18 01:14:03;;;;;;;6.23;3.77;;;;;;;16.81;47.72;99551.75;5052991;28;20118;-68
2022/11/18 01:16:29;;;;;;;7.63;3.53;;;;;;;17.19;46.88;99562.78;5050317;28;20498;-67
2022/11/18 01:18:55;;;;;;;9.07;4.10;;;;;;;17.08;47.54;99552.84;5049622;28;20039;-68
2022/11/18 01:21:21;;;;;;;6.00;3.83;;;;;;;17.23;47.02;99560.84;5049383;28;20485;-68
2022/11/18 01:23:47;;;;;;;5.33;3.50;;;;;;;16.39;48.92;99556.66;5051808;28;20025;-68
2022/11/18 01:26:14;;;;;;;8.43;3.70;;;;;;;17.07;47.35;99561.69;5050277;28;20624;-67
2022/11/18 01:28:39;;;;;;;6.83;3.37;;;;;;;16.93;46.95;99564.28;5050874;28;20494;-67
2022/11/18 01:31:11;;;;;;;7.90;4.33;;;;;;;17.06;47.21;99570.56;5049656;28;20036;-68
2022/11/18 01:33:37;;;;;;;9.18;4.18;;;;;;;17.08;46.93;99573.97;5049818;28;20021;-68
2022/11/18 01:36:03;;;;;;;9.53;4.80;;;;;;;17.22;46.82;99574.97;5035051;28;20042;-67
2022/11/18 01:38:29;;;;;;;7.77;4.00;;;;;;;17.10;47.03;99580.03;5049824;28;20091;-67
2022/11/18 01:40:55;;;;;;;6.27;3.70;;;;;;;16.93;47.62;99586.25;5039228;28;20037;-68
2022/11/18 01:43:21;;;;;;;7.00;4.17;;;;;;;16.44;48.72;99579.22;5031918;28;20030;-68
2022/11/18 01:45:49;;;;;;;7.07;4.33;;;;;;;16.50;48.88;99588.59;5046535;28;20029;-68
2022/11/18 01:48:32;;;;;;;7.60;4.70;;;;;;;16.11;48.92;99584.50;5048046;28;20496;-68
2022/11/18 01:51:04;;;;;;;5.50;3.97;;;;;;;16.77;47.78;99591.50;5049028;28;20084;-67
2022/11/18 01:53:37;;;;;;;8.00;4.30;;;;;;;16.28;49.67;99588.91;5050522;28;20017;-67
2022/11/18 01:56:11;;;;;;;8.07;4.40;;;;;;;16.41;49.10;99589.94;5049132;28;20033;-68
2022/11/18 01:58:43;;;;;;;12.33;4.40;;;;;;;16.70;48.11;99595.41;5050969;28;20095;-67
2022/11/18 02:01:09;;;;;;;8.10;4.22;;;;;;;16.17;49.76;99592.09;5047795;28;20068;-68
2022/11/18 02:03:35;;;;;;;9.63;5.23;;;;;;;16.40;48.83;99590.88;5047921;28;20064;-68
2022/11/18 02:06:02;;;;;;;7.40;4.80;;;;;;;16.35;48.78;99595.53;5050921;28;20075;-67
2022/11/18 02:08:29;;;;;;;8.23;4.70;;;;;;;16.59;47.71;99597.78;5049650;28;20702;-68
2022/11/18 02:10:54;;;;;;;9.47;5.33;;;;;;;16.13;49.20;99600.25;5050211;28;20033;-67
2022/11/18 02:13:21;;;;;;;16.23;5.03;;;;;;;16.03;49.73;99611.28;5047409;28;20489;-67
2022/11/18 02:16:04;;;;;;;12.10;5.60;;;;;;;15.45;51.41;99609.78;5051540;28;20036;-68
2022/11/18 02:18:57;;;;;;;7.43;5.10;;;;;;;16.42;49.43;99610.09;5048512;28;20044;-67
2022/11/18 02:21:44;;;;;;;6.50;4.57;;;;;;;16.81;48.13;99617.72;5079364;28;20024;-68
2022/11/18 02:24:37;;;;;;;11.90;5.70;;;;;;;16.57;49.07;99615.50;5051072;28;20029;-68
2022/11/18 02:27:27;;;;;;;13.70;5.60;;;;;;;16.67;47.57;99621.13;5050582;28;20505;-68
2022/11/18 02:30:07;;;;;;;14.50;5.23;;;;;;;16.68;47.94;99625.44;5057623;28;20037;-67
2022/11/18 02:32:54;;;;;;;6.97;5.00;;;;;;;16.26;48.66;99628.50;5050836;28;20033;-68
2022/11/18 02:35:38;;;;;;;10.00;5.93;;;;;;;16.91;47.85;99630.34;5050301;28;20025;-67
2022/11/18 02:38:07;;;;;;;10.80;4.87;;;;;;;16.76;47.64;99632.00;5049170;28;20040;-68
2022/11/18 02:40:42;;;;;;;8.20;5.07;;;;;;;17.11;46.98;99631.84;5048042;28;20033;-68
2022/11/18 02:43:14;;;;;;;8.93;5.70;;;;;;;16.35;48.63;99637.72;5048197;28;20088;-68
2022/11/18 02:45:41;;;;;;;;;;;;;;;16.70;47.88;99637.59;5051554;28;20474;-67
2022/11/18 02:48:09;;;;;;;12.27;5.57;;;;;;;16.63;48.13;99634.44;5049135;28;19913;-68
2022/11/18 02:50:37;;;;;;;9.43;5.50;;;;;;;16.92;47.00;99636.47;5047533;28;20028;-68
2022/11/18 02:53:06;;;;;;;9.10;5.93;;;;;;;16.81;47.47;99638.81;5049492;28;20032;-68
2022/11/18 02:55:34;;;;;;;10.97;5.73;;;;;;;16.78;47.12;99643.31;5049749;28;20462;-68
2022/11/18 02:58:01;;;;;;;12.93;5.80;;;;;;;16.33;48.46;99647.50;5048949;28;20032;-67
2022/11/18 03:00:26;;;;;;;9.13;5.83;;;;;;;16.66;47.50;99649.25;5048458;28;20044;-68
2022/11/18 03:02:52;;;;;;;11.50;5.93;;;;;;;16.83;47.31;99647.50;5048048;28;20086;-68
2022/11/18 03:05:29;;;;;;;11.00;6.43;;;;;;;16.90;47.37;99648.91;5049911;28;20035;-68
2022/11/18 03:08:00;;;;;;;13.17;6.30;;;;;;;16.54;47.51;99650.78;5048413;28;20064;-68
2022/11/18 03:10:38;;;;;;;11.13;6.00;;;;;;;16.73;48.09;99653.28;5047047;28;20036;-68
2022/11/18 03:13:09;;;;;;;13.50;6.80;;;;;;;17.04;46.86;99662.19;5081947;28;20024;-68
2022/11/18 03:15:43;;;;;;;11.40;6.77;;;;;;;16.28;49.04;99666.19;5048674;28;20114;-68
2022/11/18 03:18:30;;;;;;;10.87;6.20;;;;;;;16.62;47.95;99660.91;5049064;28;20025;-68
2022/11/18 03:21:07;;;;;;;10.33;5.97;;;;;;;16.40;48.63;99658.56;5049127;28;20033;-68
2022/11/18 03:23:38;;;;;;;12.97;6.57;;;;;;;16.41;47.96;99663.75;5048122;28;20120;-68
2022/11/18 03:26:06;;;;;;;12.33;6.83;;;;;;;16.85;47.06;99666.75;5045350;28;20033;-68
2022/11/18 03:28:46;;;;;;;11.00;6.43;;;;;;;16.66;47.23;99667.72;5045787;28;20348;-68
2022/11/18 03:31:23;;;;;;;14.73;6.50;;;;;;;16.69;47.63;99672.88;5044291;28;20037;-68
2022/11/18 03:33:53;;;;;;;14.57;6.73;;;;;;;16.70;47.02;99674.53;5048578;28;20025;-68
2022/11/18 03:36:22;;;;;;;14.70;7.07;;;;;;;15.90;49.09;99679.56;5044986;28;20032;-68
2022/11/18 03:38:51;;;;;;;14.43;7.43;;;;;;;16.51;47.30;99679.09;5046528;28;20029;-68
2022/11/18 03:41:19;;;;;;;15.33;7.53;;;;;;;16.61;47.88;99681.19;5046178;28;20033;-68
2022/11/18 03:43:57;;;;;;;10.93;7.20;;;;;;;15.81;49.88;99685.28;5045612;28;20025;-68
2022/11/18 03:46:30;;;;;;;15.03;6.80;;;;;;;16.87;47.29;99685.97;5048675;28;20521;-68
2022/11/18 03:48:58;;;;;;;13.93;7.07;;;;;;;16.04;49.25;99697.31;5048805;28;20032;-68
2022/11/18 03:51:42;;;;;;;14.03;7.47;;;;;;;16.77;47.58;99691.78;5047442;28;20444;-68
2022/11/18 03:54:32;;;;;;;13.90;7.97;;;;;;;16.85;47.79;99699.25;5046673;28;20037;-68
2022/11/18 03:57:08;;;;;;;11.63;7.47;;;;;;;16.38;49.07;99694.75;5045581;28;20044;-68
2022/11/18 03:59:42;;;;;;;12.67;8.00;;;;;;;16.14;50.07;99707.38;5047705;28;20111;-68
2022/11/18 04:02:13;;;;;;;15.80;8.17;;;;;;;15.75;50.74;99696.94;5047711;28;20036;-68
2022/11/18 04:04:40;;;;;;;13.70;8.20;;;;;;;16.81;48.05;99699.50;5047768;28;20029;-68
2022/11/18 04:07:26;;;;;;;16.73;9.40;;;;;;;16.84;48.31;99707.25;5047661;28;20510;-68
2022/11/18 04:10:00;;;;;;;15.67;8.13;;;;;;;16.23;49.96;99712.19;5046622;28;20035;-67
2022/11/18 04:12:30;;;;;;;13.67;8.03;;;;;;;16.94;48.02;99719.91;5047026;28;20043;-68
2022/11/18 04:14:56;;;;;;;12.03;7.50;;;;;;;16.91;48.42;99719.22;5048286;28;20513;-68
2022/11/18 04:17:25;;;;;;;14.43;8.60;;;;;;;16.78;48.30;99713.72;5048488;28;20017;-68
2022/11/18 04:19:50;;;;;;;13.53;7.33;;;;;;;16.11;49.69;99729.47;5049155;28;20060;-68
2022/11/18 04:22:18;;;;;;;12.47;7.33;;;;;;;16.36;48.99;99728.22;5053601;28;20443;-68
2022/11/18 04:24:43;;;;;;;10.43;7.23;;;;;;;16.01;50.14;99739.63;5051585;28;20098;-68
2022/11/18 04:27:09;;;;;;;17.03;9.37;;;;;;;16.77;48.06;99728.72;5050761;28;20486;-68
2022/11/18 04:29:35;;;;;;;18.83;8.97;;;;;;;16.39;49.45;99733.34;5050843;28;20490;-68
2022/11/18 04:32:01;;;;;;;13.93;8.07;;;;;;;15.65;50.99;99743.13;5052110;28;20079;-68
2022/11/18 04:34:27;;;;;;;16.50;8.30;;;;;;;16.20;50.05;99744.00;5052200;28;20032;-68
2022/11/18 04:36:52;;;;;;;17.90;8.60;;;;;;;16.28;48.92;99752.38;5051669;28;20075;-68
2022/11/18 04:39:18;;;;;;;14.77;8.23;;;;;;;16.62;48.52;99745.34;5083363;28;20556;-68
2022/11/18 04:41:56;;;;;;;16.70;7.90;;;;;;;16.67;48.56;99743.31;5049819;28;20452;-68
2022/11/18 04:44:29;;;;;;;14.23;7.53;;;;;;;16.89;47.77;99750.97;5051911;28;20532;-68
2022/11/18 04:46:56;;;;;;;13.30;7.80;;;;;;;16.66;48.41;99762.72;5049731;28;20040;-68
2022/11/18 04:49:22;;;;;;;13.30;7.63;;;;;;;16.44;48.86;99763.84;5050796;28;20029;-68
2022/11/18 04:51:49;;;;;;;11.23;7.63;;;;;;;16.39;48.48;99760.59;5050694;28;20032;-68
2022/11/18 04:54:15;;;;;;;12.63;7.00;;;;;;;16.85;47.27;99772.31;5049804;28;20071;-68
2022/11/18 04:56:41;;;;;;;15.87;8.17;;;;;;;16.55;48.57;99776.44;5051557;28;20091;-68
2022/11/18 04:59:07;;;;;;;20.33;8.07;;;;;;;15.76;49.89;99775.06;5052165;28;20035;-68
2022/11/18 05:01:33;;;;;;;17.90;7.90;;;;;;;15.72;50.79;99781.41;5052095;28;20061;-68
2022/11/18 05:04:02;;;;;;;13.23;8.63;;;;;;;16.17;49.37;99783.69;5052973;28;20029;-68
2022/11/18 05:06:29;;;;;;;15.60;8.37;;;;;;;16.22;49.35;99787.78;5084862;28;20044;-68
2022/11/18 05:08:56;;;;;;;14.07;7.83;;;;;;;16.73;47.61;99790.50;5048554;28;20115;-69
2022/11/18 05:14:06;;;;;;;17.40;7.87;;;;;;;15.85;50.20;99796.66;5033336;28;20091;-69
2022/11/18 05:16:31;;;;;;;11.93;7.13;;;;;;;16.37;49.04;99801.97;5030644;28;20022;-69
2022/11/18 05:18:56;;;;;;;15.93;10.73;;;;;;;16.20;49.50;99802.00;5033866;28;20374;-69
2022/11/18 05:21:22;;;;;;;13.60;8.17;;;;;;;15.81;50.80;99803.00;5051204;28;20474;-69
2022/11/18 05:23:47;;;;;;;12.53;7.80;;;;;;;16.68;48.56;99803.06;5049601;28;20067;-69
2022/11/18 05:26:12;;;;;;;12.30;7.50;;;;;;;15.75;50.45;99802.31;5050738;28;20108;-69
2022/11/18 05:28:38;;;;;;;13.83;8.30;;;;;;;15.99;50.61;99802.13;5051831;28;20040;-69
2022/11/18 05:31:11;;;;;;;12.97;7.40;;;;;;;16.62;48.48;99808.66;5049294;28;20055;-69
2022/11/18 05:33:37;;;;;;;13.60;7.40;;;;;;;16.57;48.47;99815.97;5051316;28;20029;-69
2022/11/18 05:36:08;;;;;;;17.10;7.53;;;;;;;16.63;47.77;99810.34;5050678;28;20143;-69
2022/11/18 05:38:34;;;;;;;14.30;7.40;;;;;;;16.57;48.06;99821.25;5051966;28;20064;-69
2022/11/18 05:41:00;;;;;;;14.77;7.10;;;;;;;16.37;49.11;99820.44;5047585;28;20081;-69
2022/11/18 05:43:27;;;;;;;11.33;7.30;;;;;;;15.83;49.40;99820.44;5049890;28;20056;-70
2022/11/18 05:45:52;;;;;;;12.83;7.73;;;;;;;16.20;48.53;99821.28;5051086;28;20044;-70
2022/11/18 05:48:18;;;;;;;16.30;7.53;;;;;;;16.41;47.88;99822.00;5050149;28;20093;-69
2022/11/18 05:50:46;;;;;;;17.00;7.40;;;;;;;15.67;49.94;99824.72;5046961;28;20053;-69
2022/11/18 05:53:12;;;;;;;14.27;8.20;;;;;;;15.64;50.88;99827.50;5050937;28;20013;-69
2022/11/18 05:55:54;;;;;;;12.33;7.47;;;;;;;15.64;49.79;99827.50;5051441;28;20120;-69
2022/11/18 05:58:19;;;;;;;14.87;7.67;;;;;;;15.54;50.41;99834.97;5051103;28;20402;-69
2022/11/18 06:00:48;;;;;;;18.80;8.17;;;;;;;16.07;48.80;99828.97;5049581;28;20123;-69
2022/11/18 06:03:22;;;;;;;12.97;7.63;;;;;;;15.52;50.57;99842.91;5051527;28;20655;-69
2022/11/18 06:05:48;;;;;;;15.20;7.57;;;;;;;15.87;49.21;99831.72;5049179;28;20044;-69
2022/11/18 06:08:16;;;;;;;13.10;7.60;;;;;;;15.25;50.53;99839.78;5052045;28;20086;-69
2022/11/18 06:10:44;;;;;;;13.83;8.20;;;;;;;15.46;50.78;99845.00;5049376;28;20049;-69
2022/11/18 06:13:14;;;;;;;13.10;7.30;;;;;;;16.05;49.04;99836.06;5048501;28;20386;-69
2022/11/18 06:15:42;;;;;;;10.77;6.93;;;;;;;15.78;49.55;99843.50;5050374;28;20029;-69
2022/11/18 06:18:12;;;;;;;13.83;7.17;;;;;;;16.35;48.03;99848.69;5050915;28;20036;-69
2022/11/18 06:20:40;;;;;;;19.93;7.33;;;;;;;15.85;49.31;99844.09;5050937;28;20494;-69
2022/11/18 06:23:05;;;;;;;13.60;6.93;;;;;;;15.44;50.07;99859.09;5049862;28;20103;-69
2022/11/18 06:25:31;;;;;;;15.30;7.17;;;;;;;15.66;50.23;99871.28;5050270;28;20131;-69
2022/11/18 06:28:00;;;;;;;16.13;7.63;;;;;;;16.07;48.85;99860.59;5050188;28;20021;-69
2022/11/18 06:30:26;;;;;;;15.67;7.10;;;;;;;15.83;49.39;99872.31;5049503;28;20033;-69
2022/11/18 06:32:51;;;;;;;14.93;7.63;;;;;;;16.37;47.67;99878.47;5050289;28;20082;-69
2022/11/18 06:35:17;;;;;;;13.33;7.37;;;;;;;16.10;48.65;99881.53;5050542;28;20499;-69
2022/11/18 06:37:42;;;;;;;19.60;7.13;;;;;;;16.45;47.42;99886.84;5049545;28;20098;-69
2022/11/18 06:40:08;;;;;;;14.17;6.37;;;;;;;15.97;49.16;99890.94;5048312;28;20128;-69
2022/11/18 06:45:18;;;;;;;12.67;7.27;;;;;;;16.19;48.38;99900.47;5050381;28;20110;-69
2022/11/18 06:47:43;;;;;;;15.93;8.00;;;;;;;16.15;48.61;99905.00;5050506;28;20036;-69
2022/11/18 06:50:08;;;;;;;16.60;8.73;;;;;;;16.33;48.54;99903.28;5049864;28;20025;-69
2022/11/18 06:52:34;;;;;;;21.57;9.70;;;;;;;16.22;49.22;99916.13;5050756;28;20033;-69
2022/11/18 06:54:59;;;;;;;17.03;7.27;;;;;;;15.92;49.49;99919.28;5047352;28;20091;-69
2022/11/18 06:57:24;;;;;;;17.17;6.93;;;;;;;16.56;48.62;99920.59;5051454;28;20024;-69
2022/11/18 06:59:50;;;;;;;11.90;6.67;;;;;;;16.01;49.69;99924.13;5048948;28;20076;-69
2022/11/18 07:02:17;;;;;;;12.70;6.90;;;;;;;15.94;50.56;99927.97;5049381;28;20063;-69
2022/11/18 07:04:43;;;;;;;14.07;6.30;;;;;;;15.76;50.14;99932.28;5059897;28;20377;-69
2022/11/18 07:07:08;;;;;;;18.50;7.77;;;;;;;16.79;48.03;99937.94;5081001;28;20032;-69
2022/11/18 07:09:35;;;;;;;9.30;6.40;;;;;;;16.51;48.72;99937.59;5048570;28;20032;-69
2022/11/18 07:12:01;;;;;;;15.33;6.33;;;;;;;16.58;49.09;99941.63;5049412;28;20032;-69
2022/11/18 07:14:26;;;;;;;15.30;7.07;;;;;;;16.46;48.85;99945.75;5047736;28;20403;-70
2022/11/18 07:16:52;;;;;;;12.03;6.33;;;;;;;16.31;49.92;99947.34;5048593;28;20032;-69
2022/11/18 07:19:17;;;;;;;12.83;6.57;;;;;;;16.72;48.09;99951.50;5044013;28;20029;-69
2022/11/18 07:21:43;;;;;;;16.30;5.30;;;;;;;16.57;49.20;99947.84;5044559;28;20043;-70
2022/11/18 07:24:12;;;;;;;13.13;6.87;;;;;;;16.42;49.31;99950.31;5050197;28;20107;-70
2022/11/18 07:26:37;;;;;;;11.67;5.80;;;;;;;17.08;47.54;99948.84;5047866;28;20151;-70
2022/11/18 07:29:03;;;;;;;13.53;6.10;;;;;;;16.65;48.67;99956.25;5045490;28;20489;-70
2022/11/18 07:31:29;;;;;;;9.47;5.90;;;;;;;16.84;48.51;99961.44;5049067;28;20087;-70
2022/11/18 07:33:54;;;;;;;11.83;5.53;;;;;;;16.94;48.49;99961.91;5048898;28;20025;-70
2022/11/18 07:36:22;;;;;;;8.87;5.90;;;;;;;16.45;49.39;99968.59;5048485;28;20021;-70
2022/11/18 07:38:48;;;;;;;11.93;5.60;;;;;;;16.05;50.61;99973.13;5048474;28;20029;-70
2022/11/18 07:41:19;;;;;;;11.37;6.30;;;;;;;17.13;48.91;99981.16;5047938;28;20127;-70
2022/11/18 07:43:45;;;;;;;8.87;5.77;;;;;;;17.00;48.64;99987.13;5048188;28;20033;-70
2022/11/18 07:46:12;;;;;;;16.33;7.13;;;;;;;16.92;48.22;99998.91;5052191;28;20033;-70
2022/11/18 07:48:37;;;;;;;21.33;6.37;;;;;;;16.71;49.67;99997.31;5045892;28;20043;-70
2022/11/18 07:51:03;;;;;;;17.43;6.47;;;;;;;17.26;48.87;100004.28;5062612;28;20033;-70
2022/11/18 07:53:30;;;;;;;14.83;6.53;;;;;;;17.99;46.86;100006.66;5051933;28;20071;-70
2022/11/18 07:55:55;;;;;;;13.87;6.50;;;;;;;17.60;47.59;100008.69;5053886;28;20094;-70
2022/11/18 07:58:21;;;;;;;17.03;6.80;;;;;;;17.75;47.51;100017.59;5053630;28;20463;-69
2022/11/18 08:00:46;;;;;;;19.40;8.27;;;;;;;17.81;46.59;100014.59;5050474;28;20164;-70
2022/11/18 08:03:11;;;;;;;19.53;6.90;;;;;;;17.91;47.13;100011.47;5086458;28;20092;-70
2022/11/18 08:05:37;;;;;;;19.97;7.53;;;;;;;18.00;47.31;100024.25;5052206;28;20025;-70
2022/11/18 08:08:02;;;;;;;17.57;6.70;;;;;;;17.92;47.34;100023.81;5052952;28;20464;-69
2022/11/18 08:10:27;;;;;;;13.07;5.50;;;;;;;16.51;51.57;100032.56;5051955;28;20045;-70
2022/11/18 08:12:54;;;;;;;9.87;4.77;;;;;;;17.35;49.75;100030.25;5050033;28;20028;-69
2022/11/18 08:15:20;;;;;;;11.17;4.80;;;;;;;17.46;49.88;100027.91;5054048;28;20024;-69
2022/11/18 08:17:45;;;;;;;14.20;5.30;;;;;;;16.50;51.38;100036.97;5051824;28;20099;-69
2022/11/18 08:20:10;;;;;;;11.20;4.87;;;;;;;16.62;52.53;100046.09;5055192;28;20056;-68
2022/11/18 08:22:36;;;;;;;8.40;4.77;;;;;;;15.93;53.75;100050.13;5055136;28;20456;-69
2022/11/18 08:25:01;;;;;;;11.97;4.97;;;;;;;16.84;51.71;100045.91;5051161;28;20085;-68
2022/11/18 08:27:26;;;;;;;15.13;5.10;;;;;;;16.70;53.49;100043.94;5056011;28;20025;-68
2022/11/18 08:29:52;;;;;;;9.27;4.37;;;;;;;16.18;54.08;100051.66;5049676;28;20040;-69
2022/11/18 08:32:17;;;;;;;13.13;5.00;;;;;;;16.06;55.44;100063.59;5055866;28;20088;-69
2022/11/18 08:34:42;;;;;;;15.97;5.17;;;;;;;16.15;55.42;100059.72;5055885;28;20036;-68
2022/11/18 08:37:08;;;;;;;10.30;4.70;;;;;;;16.02;54.53;100064.66;5055438;28;20028;-69
2022/11/18 08:39:33;;;;;;;19.37;5.00;;;;;;;16.61;53.60;100054.94;5049994;28;20228;-69
2022/11/18 08:41:59;;;;;;;13.43;5.07;;;;;;;17.41;51.33;100061.59;5052039;28;20508;-70
2022/11/18 08:44:24;;;;;;;9.67;5.00;;;;;;;17.39;52.21;100068.78;5064712;28;20068;-69
2022/11/18 08:46:49;;;;;;;18.07;5.27;;;;;;;16.70;53.52;100065.03;5052485;28;20097;-69
2022/11/18 08:49:15;;;;;;;9.87;4.67;;;;;;;17.24;51.29;100069.50;5051658;28;20032;-69
2022/11/18 08:51:40;;;;;;;12.57;5.10;;;;;;;17.58;51.36;100065.16;5067026;28;20036;-68
2022/11/18 08:54:05;;;;;;;10.50;4.97;;;;;;;16.49;54.75;100084.53;5041095;28;20099;-69
2022/11/18 08:56:31;;;;;;;13.67;5.37;;;;;;;17.22;52.20;100071.41;5050950;28;20041;-69
2022/11/18 08:58:56;;;;;;;11.07;5.67;;;;;;;16.66;54.36;100079.31;5047504;28;20385;-69
2022/11/18 09:01:22;;;;;;;12.33;4.50;;;;;;;17.03;52.31;100077.56;5034500;28;20064;-68
2022/11/18 09:03:48;;;;;;;9.90;5.07;;;;;;;17.12;54.02;100074.47;5042150;28;20554;-69
2022/11/18 09:06:15;;;;;;;11.13;4.23;;;;;;;17.19;52.81;100087.41;5068844;28;20032;-69
2022/11/18 09:08:42;;;;;;;11.60;4.53;;;;;;;17.05;52.80;100080.13;5051294;28;20033;-69
2022/11/18 09:11:22;;;;;;;13.20;4.27;;;;;;;17.54;51.99;100087.41;5038344;28;20487;-69
2022/11/18 09:13:51;;;;;;;10.70;4.10;;;;;;;18.17;50.95;100085.94;5049850;28;20075;-68
2022/11/18 09:16:17;;;;;;;10.97;4.10;;;;;;;18.34;49.31;100087.66;5051565;28;20482;-69
2022/11/18 09:18:42;;;;;;;11.00;3.30;;;;;;;18.12;50.14;100094.97;5050705;28;20090;-69
2022/11/18 09:21:08;;;;;;;9.83;3.63;;;;;;;18.41;49.42;100097.84;5050098;28;20064;-69
2022/11/18 09:23:35;;;;;;;8.20;4.13;;;;;;;18.22;50.26;100097.16;5050556;28;20039;-69
2022/11/18 09:26:03;;;;;;;6.67;3.30;;;;;;;16.92;52.76;100112.41;5051265;28;20044;-69
2022/11/18 09:28:30;;;;;;;15.57;3.90;;;;;;;17.66;52.37;100102.63;5047292;28;20121;-69
2022/11/18 09:30:55;;;;;;;12.00;3.40;;;;;;;18.34;50.78;100109.72;5081855;28;20644;-68
2022/11/18 09:33:21;;;;;;;8.30;3.47;;;;;;;17.60;52.74;100118.81;5049294;28;20119;-68
2022/11/18 09:35:47;;;;;;;8.97;2.90;;;;;;;17.70;51.37;100111.25;5049717;28;20120;-69
2022/11/18 09:38:12;;;;;;;14.00;3.80;;;;;;;18.24;50.72;100114.63;5052105;28;20111;-69
2022/11/18 09:41:03;;;;;;;9.13;3.23;;;;;;;17.30;51.72;100122.88;5050515;28;20087;-69
2022/11/18 09:43:48;;;;;;;12.30;3.97;;;;;;;18.23;49.96;100127.91;5051247;28;20040;-69
2022/11/18 09:47:03;;;;;;;16.07;4.13;;;;;;;18.56;49.19;100130.56;5050710;28;20054;-69
2022/11/18 09:49:38;;;;;;;8.37;3.20;;;;;;;18.29;49.65;100130.25;4996194;28;20053;-69
2022/11/18 09:52:23;;;;;;;12.47;3.93;;;;;;;17.85;51.50;100141.34;5040075;28;20036;-69
2022/11/18 09:54:49;;;;;;;13.57;3.97;;;;;;;17.80;51.18;100137.16;5049985;28;20040;-69
2022/11/18 09:57:18;;;;;;;9.47;3.77;;;;;;;17.81;50.79;100143.28;5049303;28;20573;-68
2022/11/18 09:59:44;;;;;;;11.47;4.33;;;;;;;17.29;52.63;100146.75;5049366;28;20045;-69
2022/11/18 10:02:16;;;;;;;8.50;4.03;;;;;;;17.73;51.16;100150.75;5045764;28;20493;-68
2022/11/18 10:04:41;;;;;;;14.10;4.30;;;;;;;17.69;50.97;100152.69;5056528;28;20031;-69
2022/11/18 10:07:17;;;;;;;8.00;4.30;;;;;;;17.62;51.33;100156.56;5052009;28;20029;-68
2022/11/18 10:09:46;;;;;;;12.17;4.27;;;;;;;18.33;50.71;100150.31;5083886;28;20056;-68
2022/11/18 10:12:22;;;;;;;9.90;4.77;;;;;;;18.26;50.16;100160.38;5046754;28;20029;-68
2022/11/18 10:14:48;;;;;;;10.20;4.57;;;;;;;17.78;52.23;100160.16;5063783;28;20032;-69
2022/11/18 10:17:32;;;;;;;9.53;4.90;;;;;;;17.84;51.15;100168.72;5046299;28;20051;-68
2022/11/18 10:20:23;;;;;;;11.83;6.00;;;;;;;19.01;49.29;100165.19;5066913;28;20049;-68
2022/11/18 10:22:54;;;;;;;11.63;4.20;;;;;;;18.17;51.04;100174.06;5049586;28;20032;-68
2022/11/18 10:25:19;;;;;;;13.03;4.33;;;;;;;18.27;50.31;100171.78;5048739;28;20037;-69
2022/11/18 10:27:47;;;;;;;7.47;3.80;;;;;;;17.60;53.08;100182.22;5050467;28;20035;-68
2022/11/18 10:30:19;;;;;;;9.70;3.93;;;;;;;17.54;53.16;100188.66;5045636;28;20035;-68
2022/11/18 10:33:01;;;;;;;12.83;3.30;;;;;;;17.99;51.12;100189.09;5029893;28;20033;-68
2022/11/18 10:35:30;;;;;;;13.67;4.13;;;;;;;17.93;51.95;100184.13;5046888;28;20132;-69
2022/11/18 10:38:16;;;;;;;8.63;4.70;;;;;;;17.89;52.45;100187.84;5049346;28;20044;-68
2022/11/18 10:40:49;;;;;;;10.50;4.27;;;;;;;17.80;51.69;100190.00;5039170;28;20063;-69
2022/11/18 10:43:47;;;;;;;15.70;4.47;;;;;;;17.34;52.91;100192.28;5054264;28;20094;-68
2022/11/18 10:46:24;;;;;;;11.03;4.30;;;;;;;18.93;50.58;100191.22;5048378;28;20087;-69
2022/11/18 10:49:08;;;;;;;21.47;5.40;;;;;;;19.35;48.61;100196.88;5049745;28;20478;-69
2022/11/18 10:51:39;;;;;;;10.73;3.93;;;;;;;18.61;50.39;100197.31;5048661;28;20051;-70
2022/11/18 10:54:20;;;;;;;10.50;4.27;;;;;;;19.27;49.27;100199.97;5047550;28;20024;-68
2022/11/18 10:56:49;;;;;;;13.47;4.37;;;;;;;19.43;47.80;100199.97;5050437;28;20507;-69
2022/11/18 10:59:29;;;;;;;9.83;4.13;;;;;;;19.56;47.90;100200.09;5054838;28;20154;-68
2022/11/18 11:02:00;;;;;;;8.83;4.30;;;;;;;19.61;47.90;100198.88;5049383;28;20095;-69
2022/11/18 11:04:27;;;;;;;14.50;5.17;;;;;;;19.64;47.49;100203.16;5047666;28;20041;-69
2022/11/18 11:06:53;;;;;;;10.97;5.40;;;;;;;19.92;46.25;100190.97;5036189;28;20482;-68
2022/11/18 11:09:26;;;;;;;15.40;6.53;;;;;;;18.82;48.42;100200.59;5057631;28;20052;-69
2022/11/18 11:12:17;;;;;;;12.47;4.83;;;;;;;18.14;50.46;100198.88;5048717;28;20025;-69
2022/11/18 11:14:54;;;;;;;10.50;4.00;;;;;;;19.18;48.56;100204.00;5043724;28;20036;-69
2022/11/18 11:17:41;;;;;;;10.13;4.80;;;;;;;19.92;46.71;100204.22;5042599;28;20036;-69
2022/11/18 11:20:16;;;;;;;10.33;4.33;;;;;;;19.32;48.03;100205.84;5051331;28;20044;-68
2022/11/18 11:22:41;;;;;;;12.27;4.60;;;;;;;19.02;48.49;100206.63;5049991;28;20017;-69
2022/11/18 11:25:18;;;;;;;13.47;4.90;;;;;;;19.47;47.40;100206.78;5046118;28;20044;-68
2022/11/18 11:27:51;;;;;;;11.37;4.40;;;;;;;19.06;47.80;100220.56;5048565;28;20032;-68
2022/11/18 11:30:20;;;;;;;;;;;;;;;19.78;47.29;100221.78;5044334;28;20025;-68
2022/11/18 11:32:51;;;;;;;15.27;4.73;;;;;;;19.67;47.75;100219.75;5048668;28;19955;-68
2022/11/18 11:35:33;;;;;;;13.00;5.23;;;;;;;19.62;47.38;100218.31;5039664;28;20052;-69
2022/11/18 11:38:03;;;;;;;10.23;5.60;;;;;;;18.86;48.57;100226.91;5048425;28;20466;-69
2022/11/18 11:40:38;;;;;;;15.47;5.70;;;;;;;19.46;47.78;100221.81;5047903;28;20475;-68
2022/11/18 11:43:10;;;;;;;12.67;5.33;;;;;;;19.50;47.39;100236.59;5039500;28;20025;-68
2022/11/18 11:45:46;;;;;;;14.60;6.40;;;;;;;19.32;48.26;100235.00;5044747;28;20049;-68
2022/11/18 11:48:28;;;;;;;15.33;6.90;;;;;;;18.86;50.27;100234.84;5041522;28;20059;-69